createdAt,value
2018-09-21T00:01:03.000Z,78.00
2018-09-21T00:02:03.056Z,77.61
2018-09-21T00:03:56.055Z,78.09
2018-09-21T00:04:56.115Z,78.28
2018-09-21T00:06:49.115Z,78.38
2018-09-21T00:07:49.204Z,78.19
2018-09-21T00:09:42.188Z,78.09
2018-09-21T00:10:42.235Z,77.04
2018-09-21T00:12:35.232Z,77.81
2018-09-21T00:13:35.292Z,77.51
2018-09-21T00:15:28.291Z,76.26
2018-09-21T00:16:28.348Z,77.13
2018-09-21T00:18:21.342Z,76.84
2018-09-21T00:19:21.405Z,76.94
2018-09-21T00:21:14.405Z,75.98
2018-09-21T00:22:14.460Z,76.36
2018-09-21T00:24:07.455Z,75.69
2018-09-21T00:25:07.517Z,75.79
2018-09-21T00:27:00.515Z,74.82
2018-09-21T00:28:00.574Z,74.92
2018-09-21T00:29:53.575Z,74.82
2018-09-21T00:30:53.626Z,74.73
2018-09-21T00:32:46.620Z,73.86
2018-09-21T00:33:46.685Z,74.44
2018-09-21T00:35:39.683Z,73.28
2018-09-21T00:36:39.744Z,72.71
2018-09-21T00:38:32.737Z,72.77
2018-09-21T00:39:32.800Z,72.86
2018-09-21T00:41:25.795Z,72.19
2018-09-21T00:42:25.853Z,70.84
2018-09-21T00:44:18.852Z,70.84
2018-09-21T00:45:18.910Z,69.89
2018-09-21T00:47:11.910Z,69.40
2018-09-21T00:48:11.964Z,69.12
2018-09-21T00:50:04.958Z,68.73
2018-09-21T00:51:05.023Z,69.02
2018-09-21T00:52:58.020Z,67.10
2018-09-21T00:53:58.074Z,67.29
2018-09-21T00:55:51.069Z,67.00
2018-09-21T00:56:51.130Z,67.58
2018-09-21T00:58:44.136Z,66.52
2018-09-21T00:59:44.189Z,66.04
2018-09-21T01:01:37.188Z,65.56
2018-09-21T01:02:37.246Z,64.69
2018-09-21T01:04:30.245Z,64.50
2018-09-21T01:05:30.307Z,64.40
2018-09-21T01:07:23.308Z,64.22
2018-09-21T01:08:23.366Z,63.35
2018-09-21T01:10:16.355Z,62.07
2018-09-21T01:11:16.418Z,62.16
2018-09-21T01:13:09.418Z,62.38
2018-09-21T01:14:09.473Z,62.55
2018-09-21T01:16:02.468Z,62.00
2018-09-21T01:17:02.529Z,62.16
2018-09-21T01:18:55.529Z,61.23
2018-09-21T01:19:55.585Z,61.43
2018-09-21T01:21:48.588Z,61.30
2018-09-21T01:22:48.644Z,60.34
2018-09-21T01:24:41.637Z,58.70
2018-09-21T01:25:41.698Z,58.03
2018-09-21T01:27:34.698Z,56.68
2018-09-21T01:28:34.755Z,56.68
2018-09-21T01:30:27.754Z,57.84
2018-09-21T01:31:27.816Z,55.05
2018-09-21T01:33:20.815Z,53.52
2018-09-21T01:34:20.899Z,54.38
2018-09-21T01:36:13.862Z,52.94
2018-09-21T01:37:13.948Z,53.32
2018-09-21T01:39:06.924Z,53.13
2018-09-21T01:40:06.987Z,54.02
2018-09-21T01:41:59.979Z,55.46
2018-09-21T01:43:00.037Z,55.18
2018-09-21T01:44:53.033Z,54.89
2018-09-21T01:45:53.098Z,54.60
2018-09-21T01:47:46.101Z,54.50
2018-09-21T01:48:46.147Z,54.12
2018-09-21T01:50:39.141Z,54.99
2018-09-21T01:51:39.206Z,54.22
2018-09-21T01:53:32.205Z,54.79
2018-09-21T01:54:32.261Z,54.99
2018-09-21T01:56:25.261Z,55.01
2018-09-21T01:57:25.323Z,54.69
2018-09-21T01:59:18.321Z,54.69
2018-09-21T02:00:18.380Z,54.41
2018-09-21T02:02:11.375Z,54.91
2018-09-21T02:03:11.455Z,54.34
2018-09-21T02:05:04.437Z,55.20
2018-09-21T02:06:04.519Z,55.20
2018-09-21T02:07:57.489Z,53.76
2018-09-21T02:08:57.551Z,53.64
2018-09-21T02:10:50.548Z,53.66
2018-09-21T02:11:50.609Z,55.11
2018-09-21T02:13:43.607Z,55.20
2018-09-21T02:14:43.663Z,53.76
2018-09-21T02:16:36.654Z,55.30
2018-09-21T02:17:36.728Z,55.78
2018-09-21T02:19:29.721Z,55.98
2018-09-21T02:20:29.779Z,56.55
2018-09-21T02:22:22.771Z,57.22
2018-09-21T02:23:22.836Z,58.09
2018-09-21T02:25:15.833Z,59.15
2018-09-21T02:26:15.892Z,58.37
2018-09-21T02:28:08.892Z,57.60
2018-09-21T02:29:08.956Z,56.84
2018-09-21T02:31:01.966Z,55.88
2018-09-21T02:32:02.019Z,55.59
2018-09-21T02:33:55.025Z,54.72
2018-09-21T02:34:55.073Z,54.72
2018-09-21T02:36:48.071Z,53.57
2018-09-21T02:37:48.128Z,55.01
2018-09-21T02:39:41.127Z,55.11
2018-09-21T02:40:41.199Z,56.36
2018-09-21T02:42:34.181Z,56.74
2018-09-21T02:43:34.241Z,57.51
2018-09-21T02:45:27.238Z,55.68
2018-09-21T02:46:27.299Z,55.68
2018-09-21T02:48:20.290Z,54.91
2018-09-21T02:49:20.357Z,54.34
2018-09-21T02:51:13.353Z,54.82
2018-09-21T02:52:13.413Z,54.53
2018-09-21T02:54:06.404Z,55.49
2018-09-21T02:55:06.468Z,57.60
2018-09-21T02:56:59.466Z,58.67
2018-09-21T02:57:59.524Z,58.86
2018-09-21T02:59:52.521Z,58.28
2018-09-21T03:00:52.637Z,58.28
2018-09-21T03:02:45.576Z,59.66
2018-09-21T03:03:45.674Z,59.72
2018-09-21T03:05:38.638Z,59.72
2018-09-21T03:06:38.694Z,59.17
2018-09-21T03:08:31.693Z,58.60
2018-09-21T03:09:31.751Z,58.28
2018-09-21T03:11:24.751Z,58.12
2018-09-21T03:12:24.810Z,58.37
2018-09-21T03:14:17.804Z,58.70
2018-09-21T03:15:17.866Z,58.18
2018-09-21T03:17:10.865Z,58.18
2018-09-21T03:18:10.921Z,58.79
2018-09-21T03:20:03.910Z,60.24
2018-09-21T03:21:03.969Z,62.06
2018-09-21T03:22:56.974Z,61.10
2018-09-21T03:23:57.034Z,62.26
2018-09-21T03:25:50.029Z,63.12
2018-09-21T03:26:50.089Z,63.02
2018-09-21T03:28:43.082Z,62.54
2018-09-21T03:29:43.146Z,62.64
2018-09-21T03:31:36.670Z,63.79
2018-09-21T03:32:36.710Z,64.18
2018-09-21T03:34:29.708Z,64.47
2018-09-21T03:35:29.767Z,64.95
2018-09-21T03:37:22.766Z,66.68
2018-09-21T03:38:22.824Z,65.81
2018-09-21T03:40:15.820Z,66.97
2018-09-21T03:41:15.880Z,66.97
2018-09-21T03:43:08.929Z,68.26
2018-09-21T03:44:08.933Z,69.02
2018-09-21T03:46:01.925Z,69.12
2018-09-21T03:47:01.986Z,70.09
2018-09-21T03:48:54.990Z,72.49
2018-09-21T03:49:55.043Z,71.72
2018-09-21T03:51:48.043Z,72.20
2018-09-21T03:52:48.102Z,72.59
2018-09-21T03:54:41.100Z,72.43
2018-09-21T03:55:41.163Z,72.30
2018-09-21T03:57:34.162Z,73.39
2018-09-21T03:58:34.221Z,73.88
2018-09-21T04:00:27.214Z,74.65
2018-09-21T04:01:27.282Z,75.32
2018-09-21T04:03:20.276Z,74.16
2018-09-21T04:04:20.333Z,74.74
2018-09-21T04:06:13.331Z,75.71
2018-09-21T04:07:13.390Z,75.99
2018-09-21T04:09:06.389Z,77.73
2018-09-21T04:10:06.443Z,78.06
2018-09-21T04:11:59.456Z,77.96
2018-09-21T04:12:59.503Z,77.67
2018-09-21T04:14:52.495Z,78.06
2018-09-21T04:15:52.560Z,77.00
2018-09-21T04:17:45.565Z,78.06
2018-09-21T04:18:45.620Z,78.34
2018-09-21T04:20:38.615Z,77.76
2018-09-21T04:21:38.677Z,77.96
2018-09-21T04:23:31.677Z,78.15
2018-09-21T04:24:31.735Z,78.34
2018-09-21T04:26:24.728Z,77.96
2018-09-21T04:27:24.792Z,78.63
2018-09-21T04:29:17.792Z,78.92
2018-09-21T04:30:17.857Z,78.92
2018-09-21T04:32:10.873Z,78.69
2018-09-21T04:33:10.904Z,78.21
2018-09-21T04:35:03.903Z,78.69
2018-09-21T04:36:03.980Z,78.54
2018-09-21T04:37:56.973Z,78.44
2018-09-21T04:38:57.020Z,78.73
2018-09-21T04:40:50.013Z,78.92
2018-09-21T04:41:50.078Z,79.21
2018-09-21T04:43:43.077Z,79.21
2018-09-21T04:44:43.132Z,79.89
2018-09-21T04:46:36.130Z,80.18
2018-09-21T04:47:36.188Z,80.08
2018-09-21T04:49:29.195Z,80.08
2018-09-21T04:50:29.255Z,80.18
2018-09-21T04:52:22.305Z,80.27
2018-09-21T04:53:22.327Z,80.85
2018-09-21T04:55:15.323Z,80.94
2018-09-21T04:56:15.382Z,80.37
2018-09-21T04:58:08.377Z,81.52
2018-09-21T04:59:08.437Z,81.57
2018-09-21T05:01:01.437Z,81.24
2018-09-21T05:02:01.495Z,81.72
2018-09-21T05:03:54.519Z,81.52
2018-09-21T05:04:54.577Z,81.91
2018-09-21T05:06:47.568Z,81.47
2018-09-21T05:07:47.632Z,81.33
2018-09-21T05:09:40.630Z,82.34
2018-09-21T05:10:40.685Z,82.72
2018-09-21T05:12:33.675Z,81.81
2018-09-21T05:13:33.778Z,82.05
2018-09-21T05:15:26.742Z,82.62
2018-09-21T05:16:26.800Z,82.43
2018-09-21T05:18:19.794Z,83.11
2018-09-21T05:19:19.857Z,82.43
2018-09-21T05:21:12.854Z,83.30
2018-09-21T05:22:12.913Z,82.82
2018-09-21T05:24:05.907Z,83.01
2018-09-21T05:25:05.966Z,82.92
2018-09-21T05:26:58.961Z,82.62
2018-09-21T05:27:59.024Z,83.59
2018-09-21T05:29:52.024Z,84.31
2018-09-21T05:30:52.078Z,83.78
2018-09-21T05:32:45.080Z,83.63
2018-09-21T05:33:45.133Z,84.31
2018-09-21T05:35:38.203Z,83.53
2018-09-21T05:36:38.190Z,83.69
2018-09-21T05:38:31.217Z,84.11
2018-09-21T05:39:31.243Z,82.96
2018-09-21T05:41:24.245Z,84.31
2018-09-21T05:42:24.303Z,84.31
2018-09-21T05:44:17.296Z,84.79
2018-09-21T05:45:17.361Z,85.08
2018-09-21T05:47:10.373Z,84.74
2018-09-21T05:48:10.416Z,85.08
2018-09-21T05:50:03.477Z,85.12
2018-09-21T05:51:03.535Z,85.60
2018-09-21T05:52:56.534Z,85.22
2018-09-21T05:53:56.594Z,85.22
2018-09-21T05:55:49.598Z,85.50
2018-09-21T05:56:49.659Z,85.02
2018-09-21T05:58:42.651Z,85.50
2018-09-21T05:59:42.715Z,85.22
2018-09-21T06:01:35.722Z,85.02
2018-09-21T06:02:35.841Z,84.93
2018-09-21T06:04:28.780Z,84.54
2018-09-21T06:05:28.883Z,84.35
2018-09-21T06:07:21.848Z,84.64
2018-09-21T06:08:21.905Z,84.93
2018-09-21T06:10:14.902Z,84.54
2018-09-21T06:11:14.967Z,84.25
2018-09-21T06:13:07.970Z,83.96
2018-09-21T06:14:08.092Z,84.16
2018-09-21T06:16:01.022Z,84.44
2018-09-21T06:17:01.090Z,84.54
2018-09-21T06:18:54.089Z,83.77
2018-09-21T06:19:54.149Z,84.44
2018-09-21T06:21:47.149Z,84.20
2018-09-21T06:22:47.220Z,84.58
2018-09-21T06:24:40.204Z,84.58
2018-09-21T06:25:40.267Z,84.78
2018-09-21T06:27:33.267Z,84.78
2018-09-21T06:28:33.326Z,85.06
2018-09-21T06:30:26.322Z,84.68
2018-09-21T06:31:26.386Z,85.55
2018-09-21T06:33:19.382Z,85.36
2018-09-21T06:34:19.442Z,85.59
2018-09-21T06:36:12.445Z,85.06
2018-09-21T06:37:12.502Z,85.84
2018-09-21T06:39:05.500Z,85.30
2018-09-21T06:40:05.558Z,85.64
2018-09-21T06:41:58.559Z,85.69
2018-09-21T06:42:58.622Z,85.11
2018-09-21T06:44:51.622Z,86.07
2018-09-21T06:45:51.681Z,86.36
2018-09-21T06:47:44.682Z,86.17
2018-09-21T06:48:44.745Z,85.40
2018-09-21T06:50:37.745Z,86.07
2018-09-21T06:51:37.806Z,86.17
2018-09-21T06:53:30.803Z,86.27
2018-09-21T06:54:30.862Z,85.78
2018-09-21T06:56:23.860Z,85.88
2018-09-21T06:57:23.924Z,85.64
2018-09-21T06:59:16.934Z,86.17
2018-09-21T07:00:16.991Z,86.36
2018-09-21T07:02:09.997Z,86.07
2018-09-21T07:03:10.057Z,85.84
2018-09-21T07:05:03.064Z,86.36
2018-09-21T07:06:03.120Z,85.94
2018-09-21T07:07:56.115Z,86.32
2018-09-21T07:08:56.179Z,85.94
2018-09-21T07:10:49.183Z,86.13
2018-09-21T07:11:49.239Z,86.03
2018-09-21T07:13:42.248Z,85.94
2018-09-21T07:14:42.309Z,85.94
2018-09-21T07:16:35.298Z,85.94
2018-09-21T07:17:35.364Z,85.84
2018-09-21T07:19:28.366Z,85.94
2018-09-21T07:20:28.423Z,86.08
2018-09-21T07:22:21.426Z,85.80
2018-09-21T07:23:21.484Z,85.89
2018-09-21T07:25:14.488Z,85.89
2018-09-21T07:26:14.549Z,86.42
2018-09-21T07:28:07.547Z,85.94
2018-09-21T07:29:07.609Z,85.45
2018-09-21T07:31:00.703Z,85.02
2018-09-21T07:32:00.666Z,84.68
2018-09-21T07:33:53.659Z,85.64
2018-09-21T07:34:53.723Z,85.26
2018-09-21T07:36:46.727Z,85.45
2018-09-21T07:37:46.786Z,85.06
2018-09-21T07:39:39.792Z,84.72
2018-09-21T07:40:39.846Z,83.56
2018-09-21T07:42:32.847Z,83.81
2018-09-21T07:43:32.914Z,83.91
2018-09-21T07:45:25.914Z,84.48
2018-09-21T07:46:25.971Z,83.62
2018-09-21T07:48:18.971Z,84.00
2018-09-21T07:49:19.056Z,83.42
2018-09-21T07:51:12.031Z,83.33
2018-09-21T07:52:12.090Z,83.00
2018-09-21T07:54:05.084Z,82.36
2018-09-21T07:55:05.148Z,82.46
2018-09-21T07:56:58.145Z,82.17
2018-09-21T07:57:58.206Z,81.59
2018-09-21T07:59:51.206Z,81.59
2018-09-21T08:00:51.269Z,82.17
2018-09-21T08:02:44.274Z,81.98
2018-09-21T08:03:44.328Z,82.94
2018-09-21T08:05:37.332Z,83.19
2018-09-21T08:06:37.389Z,83.87
2018-09-21T08:08:30.390Z,83.62
2018-09-21T08:09:30.451Z,84.00
2018-09-21T08:11:23.449Z,83.62
2018-09-21T08:12:23.510Z,83.72
2018-09-21T08:14:16.501Z,84.58
2018-09-21T08:15:16.588Z,84.68
2018-09-21T08:17:09.569Z,84.30
2018-09-21T08:18:09.627Z,84.24
2018-09-21T08:20:02.623Z,84.24
2018-09-21T08:21:02.687Z,83.95
2018-09-21T08:22:55.689Z,84.00
2018-09-21T08:23:55.762Z,84.58
2018-09-21T08:25:48.741Z,85.01
2018-09-21T08:26:48.806Z,84.82
2018-09-21T08:28:41.809Z,84.10
2018-09-21T08:29:41.868Z,84.88
2018-09-21T08:31:35.495Z,84.68
2018-09-21T08:32:35.440Z,85.84
2018-09-21T08:34:28.496Z,86.13
2018-09-21T08:35:28.564Z,85.94
2018-09-21T08:37:21.657Z,85.84
2018-09-21T08:38:21.623Z,86.22
2018-09-21T08:40:14.624Z,86.38
2018-09-21T08:41:14.686Z,86.18
2018-09-21T08:43:07.690Z,83.15
2018-09-21T08:44:07.747Z,79.77
2018-09-21T08:46:00.747Z,55.27
2018-09-21T08:47:00.808Z,51.58
2018-09-21T08:48:53.814Z,44.71
2018-09-21T08:49:53.872Z,36.13
2018-09-21T08:51:46.868Z,18.68
2018-09-21T08:52:46.932Z,11.65
2018-09-21T08:54:39.937Z,0.00
2018-09-21T08:55:39.991Z,0.00
2018-09-21T08:57:32.996Z,0.00
2018-09-21T08:58:33.053Z,0.00
2018-09-21T09:00:26.045Z,0.00
2018-09-21T09:01:26.112Z,0.00
2018-09-21T09:03:19.179Z,0.00
2018-09-21T09:04:19.198Z,0.00
2018-09-21T09:06:12.192Z,0.00
2018-09-21T09:07:12.256Z,0.00
2018-09-21T09:09:05.257Z,0.00
2018-09-21T09:10:05.317Z,0.00
2018-09-21T09:11:58.315Z,0.00
2018-09-21T09:12:58.375Z,0.00
2018-09-21T09:14:51.375Z,0.00
2018-09-21T09:15:51.431Z,0.00
2018-09-21T09:17:44.425Z,0.00
2018-09-21T09:18:44.489Z,0.00
2018-09-21T09:20:37.487Z,0.00
2018-09-21T09:21:37.543Z,0.00
2018-09-21T09:23:30.540Z,0.00
2018-09-21T09:24:30.607Z,0.00
2018-09-21T09:26:23.606Z,0.00
2018-09-21T09:27:23.653Z,0.00
2018-09-21T09:29:16.652Z,0.00
2018-09-21T09:30:16.709Z,0.00
2018-09-21T09:32:10.210Z,0.00
2018-09-21T09:33:10.270Z,0.00
2018-09-21T09:35:03.271Z,0.00
2018-09-21T09:36:03.330Z,0.00
2018-09-21T09:37:56.324Z,0.00
2018-09-21T09:38:56.388Z,0.00
2018-09-21T09:40:49.388Z,0.00
2018-09-21T09:41:49.446Z,0.00
2018-09-21T09:43:42.441Z,0.00
2018-09-21T09:44:42.505Z,0.00
2018-09-21T09:46:35.505Z,0.00
2018-09-21T09:47:35.562Z,0.00
2018-09-21T09:49:28.570Z,0.00
2018-09-21T09:50:28.623Z,0.00
2018-09-21T09:52:21.613Z,0.00
2018-09-21T09:53:21.679Z,0.00
2018-09-21T09:55:14.681Z,0.00
2018-09-21T09:56:14.738Z,0.00
2018-09-21T09:58:07.737Z,0.00
2018-09-21T09:59:07.798Z,0.00
2018-09-21T10:01:00.794Z,0.00
2018-09-21T10:02:00.851Z,0.00
2018-09-21T10:03:53.874Z,0.00
2018-09-21T10:04:53.930Z,0.00
2018-09-21T10:06:46.923Z,0.00
2018-09-21T10:07:46.979Z,0.00
2018-09-21T10:09:39.974Z,0.00
2018-09-21T10:10:40.036Z,0.00
2018-09-21T10:12:33.036Z,0.00
2018-09-21T10:13:33.088Z,0.00
2018-09-21T10:15:26.095Z,0.00
2018-09-21T10:16:26.157Z,0.00
2018-09-21T10:18:19.142Z,0.00
2018-09-21T10:19:19.205Z,0.00
2018-09-21T10:21:12.202Z,0.00
2018-09-21T10:22:12.259Z,0.00
2018-09-21T10:24:05.295Z,0.00
2018-09-21T10:25:05.313Z,0.00
2018-09-21T10:26:58.354Z,0.00
2018-09-21T10:27:58.516Z,0.00
2018-09-21T10:29:51.385Z,0.00
2018-09-21T10:30:51.426Z,0.00
2018-09-21T10:32:44.416Z,0.00
2018-09-21T10:33:44.670Z,0.00
2018-09-21T10:35:37.559Z,0.00
2018-09-21T10:36:37.535Z,0.00
2018-09-21T10:38:30.528Z,0.00
2018-09-21T10:39:30.587Z,0.00
2018-09-21T10:41:23.588Z,0.00
2018-09-21T10:42:23.665Z,0.00
2018-09-21T10:44:16.635Z,0.00
2018-09-21T10:45:16.697Z,0.00
2018-09-21T10:47:09.698Z,0.00
2018-09-21T10:48:09.752Z,0.00
2018-09-21T10:50:02.741Z,0.00
2018-09-21T10:51:02.800Z,0.00
2018-09-21T10:52:55.800Z,0.00
2018-09-21T10:53:55.854Z,0.00
2018-09-21T10:55:48.845Z,0.00
2018-09-21T10:56:48.905Z,0.00
2018-09-21T10:58:41.972Z,0.00
2018-09-21T10:59:41.959Z,0.00
2018-09-21T11:01:34.954Z,0.00
2018-09-21T11:02:35.013Z,0.00
2018-09-21T11:04:28.016Z,0.00
2018-09-21T11:05:28.061Z,0.00
2018-09-21T11:07:21.110Z,0.00
2018-09-21T11:08:21.117Z,0.00
2018-09-21T11:10:14.106Z,0.00
2018-09-21T11:11:14.172Z,0.00
2018-09-21T11:13:07.249Z,0.00
2018-09-21T11:14:07.220Z,0.00
2018-09-21T11:16:00.210Z,0.00
2018-09-21T11:17:00.270Z,0.00
2018-09-21T11:18:53.267Z,0.00
2018-09-21T11:19:53.326Z,0.00
2018-09-21T11:21:46.323Z,0.00
2018-09-21T11:22:46.387Z,0.00
2018-09-21T11:24:39.384Z,0.00
2018-09-21T11:25:39.440Z,0.00
2018-09-21T11:27:32.433Z,0.00
2018-09-21T11:28:32.497Z,0.00
2018-09-21T11:30:25.502Z,0.00
2018-09-21T11:31:25.560Z,0.00
2018-09-21T11:33:18.557Z,0.00
2018-09-21T11:34:18.616Z,0.00
2018-09-21T11:36:11.606Z,0.00
2018-09-21T11:37:11.670Z,0.00
2018-09-21T11:39:04.673Z,0.00
2018-09-21T11:40:04.732Z,0.00
2018-09-21T11:41:57.720Z,0.00
2018-09-21T11:42:57.780Z,0.00
2018-09-21T11:44:50.785Z,0.00
2018-09-21T11:45:50.840Z,0.00
2018-09-21T11:47:43.972Z,0.00
2018-09-21T11:48:43.897Z,0.00
2018-09-21T11:50:36.897Z,0.00
2018-09-21T11:51:36.957Z,0.00
2018-09-21T11:53:29.955Z,0.00
2018-09-21T11:54:30.014Z,0.00
2018-09-21T11:56:23.004Z,0.00
2018-09-21T11:57:23.070Z,0.00
2018-09-21T11:59:16.072Z,0.00
2018-09-21T12:00:16.128Z,0.00
2018-09-21T12:02:09.146Z,0.00
2018-09-21T12:03:09.192Z,0.00
2018-09-21T12:05:02.282Z,0.00
2018-09-21T12:06:02.266Z,0.00
2018-09-21T12:07:55.259Z,0.00
2018-09-21T12:08:56.307Z,0.00
2018-09-21T12:10:48.334Z,0.00
2018-09-21T12:11:48.390Z,0.00
2018-09-21T12:13:41.380Z,0.00
2018-09-21T12:14:41.442Z,0.00
2018-09-21T12:16:34.453Z,0.00
2018-09-21T12:17:34.501Z,0.00
2018-09-21T12:19:27.511Z,0.00
2018-09-21T12:20:27.555Z,0.00
2018-09-21T12:22:20.551Z,0.19
2018-09-21T12:23:20.612Z,0.00
2018-09-21T12:25:13.608Z,1.92
2018-09-21T12:26:13.663Z,6.82
2018-09-21T12:28:06.655Z,9.60
2018-09-21T12:29:06.717Z,8.83
2018-09-21T12:30:59.716Z,17.76
2018-09-21T12:31:59.770Z,22.38
2018-09-21T12:33:52.760Z,24.96
2018-09-21T12:34:52.824Z,30.25
2018-09-21T12:36:45.821Z,23.82
2018-09-21T12:37:45.878Z,28.33
2018-09-21T12:39:38.876Z,39.95
2018-09-21T12:40:38.932Z,29.77
2018-09-21T12:42:31.988Z,36.97
2018-09-21T12:43:31.985Z,35.53
2018-09-21T12:45:24.986Z,37.26
2018-09-21T12:46:25.045Z,43.50
2018-09-21T12:48:18.049Z,46.86
2018-09-21T12:49:18.103Z,46.58
2018-09-21T12:51:11.100Z,41.67
2018-09-21T12:52:11.156Z,36.97
2018-09-21T12:54:04.158Z,45.04
2018-09-21T12:55:04.501Z,47.05
2018-09-21T12:56:57.396Z,62.42
2018-09-21T12:57:57.493Z,75.67
2018-09-21T12:59:50.317Z,85.47
2018-09-21T13:00:50.386Z,82.87
2018-09-21T13:02:43.388Z,88.16
2018-09-21T13:03:43.433Z,89.12
2018-09-21T13:05:36.423Z,88.83
2018-09-21T13:06:36.488Z,88.83
2018-09-21T13:08:29.512Z,90.27
2018-09-21T13:09:29.538Z,88.93
2018-09-21T13:11:22.547Z,87.87
2018-09-21T13:12:22.603Z,88.54
2018-09-21T13:14:15.617Z,88.11
2018-09-21T13:15:15.655Z,89.31
2018-09-21T13:17:08.650Z,88.25
2018-09-21T13:18:08.709Z,87.49
2018-09-21T13:20:01.702Z,84.89
2018-09-21T13:21:01.763Z,89.02
2018-09-21T13:22:54.759Z,88.54
2018-09-21T13:23:54.816Z,87.87
2018-09-21T13:25:47.852Z,88.16
2018-09-21T13:26:47.968Z,88.88
2018-09-21T13:28:40.880Z,89.65
2018-09-21T13:29:40.931Z,88.21
2018-09-21T13:31:34.432Z,88.21
2018-09-21T13:32:34.492Z,89.07
2018-09-21T13:34:27.491Z,89.55
2018-09-21T13:35:27.547Z,89.36
2018-09-21T13:37:20.540Z,89.55
2018-09-21T13:38:20.619Z,88.79
2018-09-21T13:40:14.098Z,87.77
2018-09-21T13:41:14.171Z,88.31
2018-09-21T13:43:07.170Z,88.93
2018-09-21T13:44:07.247Z,83.45
2018-09-21T13:46:00.217Z,87.77
2018-09-21T13:47:00.282Z,87.10
2018-09-21T13:48:53.292Z,88.25
2018-09-21T13:49:53.346Z,86.52
2018-09-21T13:51:46.383Z,84.51
2018-09-21T13:52:46.405Z,82.87
2018-09-21T13:54:39.408Z,77.31
2018-09-21T13:55:39.463Z,79.99
2018-09-21T13:57:32.957Z,83.97
2018-09-21T13:58:33.023Z,81.92
2018-09-21T14:00:26.019Z,84.03
2018-09-21T14:01:26.076Z,84.80
2018-09-21T14:03:19.106Z,85.52
2018-09-21T14:04:19.136Z,86.77
2018-09-21T14:06:12.125Z,85.42
2018-09-21T14:07:12.187Z,84.31
2018-09-21T14:09:05.183Z,86.52
2018-09-21T14:10:05.244Z,87.54
2018-09-21T14:11:58.239Z,88.02
2018-09-21T14:12:58.308Z,88.79
2018-09-21T14:14:51.297Z,89.55
2018-09-21T14:15:51.355Z,89.12
2018-09-21T14:17:44.359Z,87.82
2018-09-21T14:18:44.421Z,87.73
2018-09-21T14:20:37.444Z,88.98
2018-09-21T14:26:01.117Z,89.51
2018-09-21T14:27:01.171Z,89.79
2018-09-21T14:28:54.727Z,90.37
2018-09-21T14:29:54.729Z,90.37
2018-09-21T14:31:47.732Z,85.33
2018-09-21T14:32:47.787Z,84.18
2018-09-21T14:34:40.797Z,76.65
2018-09-21T14:35:40.852Z,74.26
2018-09-21T14:37:33.861Z,75.60
2018-09-21T14:38:33.922Z,76.07
2018-09-21T14:40:26.915Z,75.02
2018-09-21T14:41:26.971Z,74.35
2018-09-21T14:43:19.968Z,70.99
2018-09-21T14:44:20.029Z,69.20
2018-09-21T14:46:13.053Z,68.15
2018-09-21T14:47:13.100Z,65.84
2018-09-21T14:49:06.087Z,67.47
2018-09-21T14:50:06.146Z,67.86
2018-09-21T14:51:59.153Z,67.38
2018-09-21T14:52:59.206Z,68.24
2018-09-21T14:54:52.199Z,65.36
2018-09-21T14:55:52.258Z,69.01
2018-09-21T14:57:45.266Z,63.35
2018-09-21T14:58:45.319Z,62.10
2018-09-21T15:00:38.320Z,61.24
2018-09-21T15:01:38.361Z,59.70
2018-09-21T15:03:31.350Z,58.55
2018-09-21T15:04:31.428Z,58.64
2018-09-21T15:06:24.420Z,57.85
2018-09-21T15:07:24.476Z,58.33
2018-09-21T15:09:17.468Z,58.81
2018-09-21T15:10:17.537Z,59.61
2018-09-21T15:12:10.533Z,60.08
2018-09-21T15:13:10.588Z,59.96
2018-09-21T15:15:03.585Z,58.91
2018-09-21T15:16:03.645Z,59.38
2018-09-21T15:17:58.152Z,60.53
2018-09-21T15:18:58.203Z,59.58
2018-09-21T15:20:51.192Z,59.19
2018-09-21T15:21:51.251Z,58.42
2018-09-21T15:23:44.270Z,58.52
2018-09-21T15:24:44.319Z,58.42
2018-09-21T15:26:37.314Z,57.85
2018-09-21T15:27:37.368Z,58.71
2018-09-21T15:29:30.377Z,57.85
2018-09-21T15:30:30.426Z,58.62
2018-09-21T15:32:23.429Z,58.04
2018-09-21T15:33:23.483Z,57.56
2018-09-21T15:35:16.475Z,57.28
2018-09-21T15:36:16.538Z,58.42
2018-09-21T15:38:09.531Z,58.33
2018-09-21T15:39:09.584Z,58.62
2018-09-21T15:41:02.576Z,57.46
2018-09-21T15:42:02.641Z,58.33
2018-09-21T15:43:55.633Z,59.00
2018-09-21T15:44:55.682Z,58.23
2018-09-21T15:46:48.677Z,58.91
2018-09-21T15:47:48.745Z,60.15
2018-09-21T15:49:41.741Z,59.77
2018-09-21T15:50:41.793Z,58.91
2018-09-21T15:52:34.835Z,59.38
2018-09-21T15:53:34.844Z,59.36
2018-09-21T15:55:27.832Z,59.26
2018-09-21T15:56:27.894Z,59.38
2018-09-21T15:58:20.890Z,60.22
2018-09-21T15:59:20.943Z,60.22
2018-09-21T16:01:13.936Z,60.79
2018-09-21T16:02:14.000Z,60.70
2018-09-21T16:04:07.005Z,60.03
2018-09-21T16:05:07.049Z,61.27
2018-09-21T16:07:00.089Z,60.12
2018-09-21T16:08:00.111Z,60.70
2018-09-21T16:09:53.102Z,60.60
2018-09-21T16:10:53.159Z,60.70
2018-09-21T16:12:46.145Z,59.74
2018-09-21T16:13:46.218Z,60.99
2018-09-21T16:15:39.204Z,61.46
2018-09-21T16:16:39.261Z,62.04
2018-09-21T16:18:32.254Z,64.31
2018-09-21T16:19:32.309Z,64.02
2018-09-21T16:21:25.297Z,64.40
2018-09-21T16:22:25.359Z,64.79
2018-09-21T16:24:18.407Z,64.02
2018-09-21T16:25:18.406Z,64.89
2018-09-21T16:27:11.393Z,65.26
2018-09-21T16:28:11.458Z,64.98
2018-09-21T16:30:04.450Z,66.32
2018-09-21T16:31:04.504Z,66.71
2018-09-21T16:32:57.531Z,66.42
2018-09-21T16:33:57.550Z,66.03
2018-09-21T16:35:50.568Z,64.12
2018-09-21T16:36:50.603Z,63.45
2018-09-21T16:38:43.586Z,62.96
2018-09-21T16:39:43.648Z,63.92
2018-09-21T16:41:36.643Z,64.22
2018-09-21T16:42:36.697Z,64.31
2018-09-21T16:44:29.718Z,66.42
2018-09-21T16:45:29.747Z,66.71
2018-09-21T16:47:22.733Z,66.32
2018-09-21T16:48:22.797Z,64.69
2018-09-21T16:50:15.800Z,64.18
2018-09-21T16:51:15.891Z,64.02
2018-09-21T16:53:08.843Z,64.31
2018-09-21T16:54:08.902Z,62.74
2018-09-21T16:56:01.899Z,62.93
2018-09-21T16:57:02.011Z,62.74
2018-09-21T16:58:54.956Z,61.60
2018-09-21T16:59:55.005Z,61.60
2018-09-21T17:01:47.996Z,62.26
2018-09-21T17:02:48.052Z,61.31
2018-09-21T17:04:41.093Z,61.40
2018-09-21T17:05:41.099Z,61.79
2018-09-21T17:07:34.092Z,62.55
2018-09-21T17:08:34.145Z,63.42
2018-09-21T17:10:27.139Z,63.32
2018-09-21T17:11:27.273Z,63.39
2018-09-21T17:13:20.177Z,63.13
2018-09-21T17:14:20.237Z,63.48
2018-09-21T17:16:13.236Z,63.60
2018-09-21T17:17:13.284Z,64.15
2018-09-21T17:19:06.278Z,64.53
2018-09-21T17:20:06.389Z,64.25
2018-09-21T17:21:59.340Z,64.34
2018-09-21T17:22:59.390Z,63.96
2018-09-21T17:24:52.379Z,63.76
2018-09-21T17:25:52.462Z,62.81
2018-09-21T17:27:45.433Z,63.96
2018-09-21T17:28:45.484Z,64.43
2018-09-21T17:30:38.470Z,64.53
2018-09-21T17:31:38.548Z,64.53
2018-09-21T17:33:31.526Z,66.22
2018-09-21T17:34:31.582Z,64.43
2018-09-21T17:36:24.576Z,64.43
2018-09-21T17:37:24.627Z,64.43
2018-09-21T17:39:17.613Z,64.53
2018-09-21T17:40:17.674Z,64.40
2018-09-21T17:42:10.665Z,65.08
2018-09-21T17:43:10.769Z,65.08
2018-09-21T17:45:03.704Z,64.98
2018-09-21T17:46:03.765Z,65.08
2018-09-21T17:47:56.754Z,65.36
2018-09-21T17:48:56.809Z,64.98
2018-09-21T17:50:49.794Z,66.22
2018-09-21T17:51:49.855Z,66.51
2018-09-21T17:53:42.846Z,66.80
2018-09-21T17:54:42.906Z,66.70
2018-09-21T17:56:35.889Z,67.18
2018-09-21T17:57:35.952Z,67.56
2018-09-21T17:59:29.452Z,67.76
2018-09-21T18:00:29.504Z,68.33
2018-09-21T18:02:22.504Z,69.38
2018-09-21T18:03:22.551Z,68.90
2018-09-21T18:05:15.534Z,69.57
2018-09-21T18:06:15.596Z,69.38
2018-09-21T18:08:08.588Z,69.67
2018-09-21T18:09:08.641Z,69.48
2018-09-21T18:11:01.630Z,69.86
2018-09-21T18:12:01.691Z,70.62
2018-09-21T18:13:54.685Z,69.38
2018-09-21T18:14:54.742Z,68.55
2018-09-21T18:16:47.736Z,69.89
2018-09-21T18:17:47.795Z,71.42
2018-09-21T18:19:40.795Z,73.05
2018-09-21T18:20:40.843Z,71.52
2018-09-21T18:22:33.867Z,65.97
2018-09-21T18:23:33.925Z,64.59
2018-09-21T18:25:26.952Z,65.74
2018-09-21T18:26:26.970Z,65.65
2018-09-21T18:28:19.966Z,66.93
2018-09-21T18:29:20.030Z,65.20
2018-09-21T18:31:13.013Z,67.11
2018-09-21T18:32:13.071Z,67.98
2018-09-21T18:34:06.092Z,67.21
2018-09-21T18:35:06.130Z,72.29
2018-09-21T18:36:59.120Z,64.92
2018-09-21T18:37:59.178Z,71.14
2018-09-21T18:39:52.190Z,87.37
2018-09-21T18:40:52.255Z,87.56
2018-09-21T18:42:45.749Z,85.13
2018-09-21T18:43:45.275Z,73.27
2018-09-21T18:45:38.279Z,51.53